Time;durP1;ratioP1;P1;durP2;ratioP2;P2;SDS_P1;SDS_P2;PMS_P1;PMS_P2;Temp;Humidity;BMP_temperature;BMP_pressure;BME280_temperature;BME280_humidity;BME280_pressure;Samples;Min_cycle;Max_cycle;Signal;HPM_P1;HPM_P2
2023/08/27 00:02:09;;;;;;;11.68;8.30;;;;;;;;;;5057143;28;20154;-82
2023/08/27 00:04:35;;;;;;;10.35;8.38;;;;;;;;;;5038711;28;20056;-82
2023/08/27 00:07:01;;;;;;;10.63;7.90;;;;;;;;;;5056364;28;20388;-82
2023/08/27 00:09:27;;;;;;;9.90;8.35;;;;;;;;;;5056500;28;20028;-82
2023/08/27 00:11:53;;;;;;;10.90;8.38;;;;;;;;;;5038547;28;20028;-82
2023/08/27 00:14:19;;;;;;;10.55;7.63;;;;;;;;;;5056430;28;20036;-82
2023/08/27 00:16:45;;;;;;;10.48;7.90;;;;;;;;;;5056091;28;20025;-82
2023/08/27 00:19:11;;;;;;;10.88;8.38;;;;;;;;;;5056424;28;20021;-82
2023/08/27 00:21:37;;;;;;;12.68;7.65;;;;;;;;;;5056382;28;20033;-82
2023/08/27 00:24:05;;;;;;;11.02;8.05;;;;;;;;;;5054738;28;20108;-82
2023/08/27 00:26:31;;;;;;;8.98;7.80;;;;;;;;;;5057609;28;20029;-82
2023/08/27 00:28:58;;;;;;;9.82;7.25;;;;;;;;;;5058347;28;20435;-82
2023/08/27 00:31:25;;;;;;;11.38;7.90;;;;;;;;;;5058958;28;20114;-82
2023/08/27 00:33:50;;;;;;;11.02;8.10;;;;;;;;;;5058650;28;20041;-82
2023/08/27 00:36:17;;;;;;;10.10;8.02;;;;;;;;;;5058130;28;20116;-82
2023/08/27 00:38:43;;;;;;;9.63;8.48;;;;;;;;;;5057678;28;20057;-82
2023/08/27 00:41:09;;;;;;;11.98;8.82;;;;;;;;;;5057660;28;20037;-82
2023/08/27 00:43:35;;;;;;;10.55;8.68;;;;;;;;;;5057903;28;20036;-82
2023/08/27 00:46:02;;;;;;;11.07;8.07;;;;;;;;;;5057397;28;20032;-82
2023/08/27 00:48:28;;;;;;;15.23;8.93;;;;;;;;;;5057028;28;20060;-82
2023/08/27 00:50:54;;;;;;;13.45;8.63;;;;;;;;;;5057036;28;20036;-82
2023/08/27 00:53:27;;;;;;;12.20;8.88;;;;;;;;;;5057513;28;20040;-82
2023/08/27 00:55:53;;;;;;;13.32;8.77;;;;;;;;;;5057706;28;20056;-81
2023/08/27 00:58:19;;;;;;;12.23;8.50;;;;;;;;;;5056990;28;20025;-82
2023/08/27 01:00:45;;;;;;;13.15;8.45;;;;;;;;;;5056957;28;20029;-82
2023/08/27 01:03:11;;;;;;;10.85;8.23;;;;;;;;;;5056460;28;20198;-82
2023/08/27 01:05:37;;;;;;;10.80;8.55;;;;;;;;;;5056589;28;20028;-82
2023/08/27 01:08:15;;;;;;;13.05;8.52;;;;;;;;;;5055860;28;20049;-81
2023/08/27 01:11:00;;;;;;;12.68;8.65;;;;;;;;;;5056306;28;20118;-82
2023/08/27 01:13:31;;;;;;;11.13;8.60;;;;;;;;;;5056282;28;20029;-81
2023/08/27 01:15:58;;;;;;;11.38;8.48;;;;;;;;;;5056463;28;20032;-82
2023/08/27 01:18:25;;;;;;;10.80;8.13;;;;;;;;;;5056450;28;20095;-81
2023/08/27 01:20:51;;;;;;;10.18;8.10;;;;;;;;;;5056096;28;20021;-81
2023/08/27 01:23:17;;;;;;;14.73;8.50;;;;;;;;;;5055707;28;20500;-81
2023/08/27 01:25:45;;;;;;;12.05;8.90;;;;;;;;;;5056287;28;20021;-81
2023/08/27 01:28:15;;;;;;;8.95;7.75;;;;;;;;;;5056032;28;20021;-81
2023/08/27 01:30:43;;;;;;;16.13;8.63;;;;;;;;;;5056385;28;20025;-80
2023/08/27 01:33:15;;;;;;;11.40;8.23;;;;;;;;;;5056114;28;20044;-80
2023/08/27 01:35:41;;;;;;;13.55;8.93;;;;;;;;;;5056759;28;20021;-81
2023/08/27 01:38:07;;;;;;;14.07;9.18;;;;;;;;;;5056400;28;20029;-81
2023/08/27 01:40:33;;;;;;;10.43;8.65;;;;;;;;;;5056221;28;20021;-81
2023/08/27 01:42:59;;;;;;;13.00;9.23;;;;;;;;;;5056174;28;20036;-81
2023/08/27 01:45:25;;;;;;;14.32;9.80;;;;;;;;;;5055357;28;20029;-81
2023/08/27 01:48:19;;;;;;;12.98;9.07;;;;;;;;;;5055259;28;20379;-81
2023/08/27 01:51:17;;;;;;;11.05;8.73;;;;;;;;;;5056052;28;20021;-80
2023/08/27 01:53:43;;;;;;;11.95;9.30;;;;;;;;;;5055805;28;20041;-81
2023/08/27 01:56:09;;;;;;;15.18;9.63;;;;;;;;;;5055486;28;20036;-81
2023/08/27 01:58:35;;;;;;;11.85;8.95;;;;;;;;;;5055610;28;20399;-81
2023/08/27 02:01:01;;;;;;;13.30;9.40;;;;;;;;;;5054938;28;20052;-81
2023/08/27 02:03:27;;;;;;;14.43;9.32;;;;;;;;;;5055770;28;20104;-81
2023/08/27 02:05:53;;;;;;;12.52;9.07;;;;;;;;;;5055334;28;20025;-81
2023/08/27 02:08:19;;;;;;;12.02;8.50;;;;;;;;;;5037054;28;20040;-81
2023/08/27 02:10:48;;;;;;;13.60;9.15;;;;;;;;;;5055140;28;20052;-81
2023/08/27 02:13:14;;;;;;;13.75;9.15;;;;;;;;;;5055165;28;20036;-81
2023/08/27 02:15:40;;;;;;;9.38;7.93;;;;;;;;;;5054896;28;20096;-80
2023/08/27 02:18:06;;;;;;;12.65;8.68;;;;;;;;;;5055474;28;20391;-81
2023/08/27 02:20:32;;;;;;;12.57;9.10;;;;;;;;;;5055668;28;20036;-81
2023/08/27 02:22:58;;;;;;;15.70;9.10;;;;;;;;;;5055653;28;20040;-81
2023/08/27 02:25:24;;;;;;;14.98;9.63;;;;;;;;;;5054952;28;20088;-81
2023/08/27 02:27:50;;;;;;;12.65;9.98;;;;;;;;;;5054322;28;20076;-81
2023/08/27 02:30:16;;;;;;;12.45;8.65;;;;;;;;;;5054402;28;20029;-80
2023/08/27 02:32:42;;;;;;;12.88;8.52;;;;;;;;;;5054113;28;20090;-80
2023/08/27 02:35:08;;;;;;;14.38;9.00;;;;;;;;;;5054598;28;20043;-80
2023/08/27 02:37:34;;;;;;;13.15;8.93;;;;;;;;;;5054251;28;20452;-80
2023/08/27 02:40:20;;;;;;;13.00;8.95;;;;;;;;;;5053682;28;20025;-81
2023/08/27 02:42:47;;;;;;;13.55;9.52;;;;;;;;;;5053964;28;20407;-80
2023/08/27 02:45:13;;;;;;;12.38;9.13;;;;;;;;;;5053583;28;20464;-81
2023/08/27 02:47:39;;;;;;;12.73;8.98;;;;;;;;;;5053821;28;20029;-81
2023/08/27 02:50:06;;;;;;;11.02;8.55;;;;;;;;;;5053726;28;20021;-80
2023/08/27 02:52:32;;;;;;;12.80;8.20;;;;;;;;;;5053249;28;20033;-81
2023/08/27 02:54:58;;;;;;;12.30;8.57;;;;;;;;;;5053632;28;20025;-80
2023/08/27 02:57:24;;;;;;;13.60;9.15;;;;;;;;;;5053325;28;20021;-81
2023/08/27 02:59:50;;;;;;;12.10;9.07;;;;;;;;;;5053429;28;20083;-80
2023/08/27 03:02:16;;;;;;;12.60;9.35;;;;;;;;;;5053628;28;20083;-80
2023/08/27 03:04:42;;;;;;;12.32;9.05;;;;;;;;;;5053395;28;20047;-80
2023/08/27 03:07:08;;;;;;;13.38;9.40;;;;;;;;;;5053138;28;20049;-80
2023/08/27 03:09:34;;;;;;;12.30;9.35;;;;;;;;;;5053709;28;20032;-80
2023/08/27 03:12:00;;;;;;;13.80;9.40;;;;;;;;;;5053509;28;20025;-80
2023/08/27 03:14:26;;;;;;;13.65;9.57;;;;;;;;;;5053475;28;20062;-80
2023/08/27 03:16:52;;;;;;;14.98;10.35;;;;;;;;;;5053344;28;20036;-80
2023/08/27 03:19:18;;;;;;;13.77;10.38;;;;;;;;;;5053625;28;20032;-80
2023/08/27 03:21:48;;;;;;;14.30;9.95;;;;;;;;;;5053380;28;20025;-80
2023/08/27 03:24:14;;;;;;;16.45;9.57;;;;;;;;;;5053384;28;20056;-80
2023/08/27 03:26:40;;;;;;;15.15;9.93;;;;;;;;;;5054675;28;20048;-80
2023/08/27 03:29:06;;;;;;;13.70;10.23;;;;;;;;;;5057174;28;20028;-80
2023/08/27 03:31:32;;;;;;;15.35;9.60;;;;;;;;;;5056891;28;20032;-80
2023/08/27 03:33:58;;;;;;;14.90;9.60;;;;;;;;;;5056684;28;20044;-80
2023/08/27 03:36:24;;;;;;;16.88;9.88;;;;;;;;;;5057220;28;20021;-80
2023/08/27 03:38:51;;;;;;;17.70;10.77;;;;;;;;;;5056870;28;20057;-80
2023/08/27 03:41:17;;;;;;;14.63;9.43;;;;;;;;;;5057123;28;20029;-80
2023/08/27 03:43:43;;;;;;;13.68;9.90;;;;;;;;;;5039082;28;20037;-79
2023/08/27 03:46:09;;;;;;;14.80;9.70;;;;;;;;;;5056658;28;20100;-80
2023/08/27 03:48:35;;;;;;;14.27;10.07;;;;;;;;;;5056522;28;20021;-80
2023/08/27 03:51:01;;;;;;;15.10;10.93;;;;;;;;;;5056883;28;20104;-80
2023/08/27 03:53:26;;;;;;;13.85;10.13;;;;;;;;;;5056468;28;20033;-80
2023/08/27 03:55:53;;;;;;;16.15;10.60;;;;;;;;;;5056484;28;20439;-80
2023/08/27 03:58:33;;;;;;;14.68;11.20;;;;;;;;;;5056764;28;20052;-80
2023/08/27 04:01:00;;;;;;;14.20;10.55;;;;;;;;;;5056556;28;20032;-80
2023/08/27 04:03:26;;;;;;;15.75;10.65;;;;;;;;;;5056533;28;20051;-80
2023/08/27 04:05:52;;;;;;;17.55;10.20;;;;;;;;;;5056409;28;20356;-80
2023/08/27 04:08:18;;;;;;;15.07;9.68;;;;;;;;;;5056376;28;20595;-79
2023/08/27 04:10:53;;;;;;;12.88;7.10;;;;;;;;;;5056289;28;20029;-80
2023/08/27 04:13:20;;;;;;;13.38;7.20;;;;;;;;;;5056302;28;20449;-80
2023/08/27 04:16:06;;;;;;;12.05;7.07;;;;;;;;;;5056643;28;20032;-80
2023/08/27 04:18:35;;;;;;;14.35;7.78;;;;;;;;;;5056526;28;20408;-80
2023/08/27 04:21:02;;;;;;;13.60;9.05;;;;;;;;;;5056344;28;20021;-80
2023/08/27 04:23:28;;;;;;;13.55;9.15;;;;;;;;;;5056138;28;20556;-79
2023/08/27 04:25:54;;;;;;;14.05;9.32;;;;;;;;;;5055713;28;20021;-79
2023/08/27 04:28:21;;;;;;;14.38;10.07;;;;;;;;;;5055842;28;20025;-79
2023/08/27 04:30:48;;;;;;;15.10;9.77;;;;;;;;;;5055530;28;20108;-79
2023/08/27 04:33:14;;;;;;;14.80;10.18;;;;;;;;;;5055309;28;20459;-79
2023/08/27 04:35:40;;;;;;;14.88;10.20;;;;;;;;;;5054909;28;20112;-78
2023/08/27 04:38:08;;;;;;;16.65;10.13;;;;;;;;;;5054168;28;20128;-78
2023/08/27 04:40:34;;;;;;;15.68;9.60;;;;;;;;;;5055286;28;20028;-78
2023/08/27 04:43:00;;;;;;;15.65;9.40;;;;;;;;;;5054794;28;20465;-78
2023/08/27 04:45:26;;;;;;;14.90;8.85;;;;;;;;;;5054871;28;20486;-78
2023/08/27 04:47:52;;;;;;;15.13;9.32;;;;;;;;;;5054723;28;20029;-79
2023/08/27 04:50:18;;;;;;;13.20;8.15;;;;;;;;;;5055193;28;20028;-79
2023/08/27 04:52:44;;;;;;;16.67;8.93;;;;;;;;;;5054418;28;20357;-79
2023/08/27 04:55:11;;;;;;;18.05;9.00;;;;;;;;;;5036180;28;20036;-79
2023/08/27 04:57:37;;;;;;;13.90;8.63;;;;;;;;;;5054631;28;20021;-79
2023/08/27 05:00:04;;;;;;;15.50;9.07;;;;;;;;;;5054325;28;20057;-79
2023/08/27 05:02:30;;;;;;;14.98;9.18;;;;;;;;;;5054272;28;20064;-78
2023/08/27 05:04:56;;;;;;;15.40;8.82;;;;;;;;;;5054343;28;20029;-79
2023/08/27 05:07:22;;;;;;;16.95;9.45;;;;;;;;;;5053837;28;20128;-78
2023/08/27 05:09:48;;;;;;;15.80;8.68;;;;;;;;;;5053823;28;20024;-78
2023/08/27 05:12:14;;;;;;;14.75;9.15;;;;;;;;;;5054131;28;20032;-78
2023/08/27 05:14:40;;;;;;;17.20;9.60;;;;;;;;;;5054013;28;20552;-78
2023/08/27 05:17:06;;;;;;;14.82;9.43;;;;;;;;;;5053755;28;20439;-78
2023/08/27 05:19:32;;;;;;;18.15;9.80;;;;;;;;;;5053956;28;20471;-79
2023/08/27 05:21:58;;;;;;;16.27;9.95;;;;;;;;;;5054090;28;20025;-78
2023/08/27 05:24:24;;;;;;;19.00;9.70;;;;;;;;;;5054001;28;20025;-78
2023/08/27 05:26:50;;;;;;;14.02;9.57;;;;;;;;;;5053850;28;20048;-78
2023/08/27 05:29:17;;;;;;;17.17;10.18;;;;;;;;;;5053934;28;20522;-79
2023/08/27 05:31:43;;;;;;;17.88;9.68;;;;;;;;;;5054200;28;20043;-78
2023/08/27 05:34:08;;;;;;;17.88;9.68;;;;;;;;;;5053643;28;20471;-78
2023/08/27 05:36:34;;;;;;;15.13;9.20;;;;;;;;;;5053598;28;20017;-79
2023/08/27 05:39:00;;;;;;;12.00;8.98;;;;;;;;;;5053609;28;20048;-78
2023/08/27 05:41:27;;;;;;;17.98;10.10;;;;;;;;;;5053582;28;20078;-79
2023/08/27 05:43:53;;;;;;;16.83;9.80;;;;;;;;;;5053650;28;20040;-79
2023/08/27 05:46:19;;;;;;;14.43;9.52;;;;;;;;;;5053438;28;20036;-78
2023/08/27 05:48:45;;;;;;;19.80;10.48;;;;;;;;;;5053576;28;20112;-78
2023/08/27 05:51:11;;;;;;;21.05;10.20;;;;;;;;;;5053103;28;20460;-78
2023/08/27 05:53:38;;;;;;;19.05;9.90;;;;;;;;;;5053856;28;20037;-78
2023/08/27 05:56:04;;;;;;;15.00;8.98;;;;;;;;;;5053914;28;20021;-78
2023/08/27 05:58:30;;;;;;;14.10;7.93;;;;;;;;;;5053720;28;20032;-78
2023/08/27 06:00:56;;;;;;;13.60;7.30;;;;;;;;;;5053630;28;20040;-78
2023/08/27 06:03:22;;;;;;;14.70;6.97;;;;;;;;;;5053253;28;20033;-78
2023/08/27 06:05:48;;;;;;;13.88;6.45;;;;;;;;;;5053361;28;20025;-78
2023/08/27 06:08:15;;;;;;;9.43;5.95;;;;;;;;;;5053023;28;20056;-78
2023/08/27 06:10:41;;;;;;;14.35;6.10;;;;;;;;;;5053472;28;20037;-78
2023/08/27 06:13:07;;;;;;;12.02;6.10;;;;;;;;;;5033120;28;20469;-78
2023/08/27 06:15:40;;;;;;;8.98;5.68;;;;;;;;;;5033549;28;20021;-78
2023/08/27 06:18:07;;;;;;;7.65;5.47;;;;;;;;;;5033639;28;20082;-78
2023/08/27 06:20:33;;;;;;;11.18;5.47;;;;;;;;;;5033395;28;20104;-78
2023/08/27 06:22:59;;;;;;;11.75;5.22;;;;;;;;;;5032856;28;20498;-78
2023/08/27 06:25:25;;;;;;;11.02;5.95;;;;;;;;;;5033627;28;20037;-78
2023/08/27 06:27:54;;;;;;;10.18;5.68;;;;;;;;;;5032927;28;20476;-78
2023/08/27 06:30:20;;;;;;;9.82;5.90;;;;;;;;;;5033011;28;20021;-78
2023/08/27 06:32:46;;;;;;;13.63;6.10;;;;;;;;;;5033009;28;20467;-78
2023/08/27 06:35:12;;;;;;;10.63;5.70;;;;;;;;;;5032821;28;20029;-78
2023/08/27 06:37:45;;;;;;;10.90;5.75;;;;;;;;;;5033150;28;20036;-78
2023/08/27 06:40:12;;;;;;;7.32;5.03;;;;;;;;;;5033955;28;20032;-79
2023/08/27 06:42:39;;;;;;;8.52;4.97;;;;;;;;;;5034581;28;20022;-78
2023/08/27 06:45:06;;;;;;;8.48;4.32;;;;;;;;;;5033246;28;20057;-78
2023/08/27 06:47:32;;;;;;;7.65;3.50;;;;;;;;;;5034857;28;20532;-78
2023/08/27 06:49:58;;;;;;;6.80;3.40;;;;;;;;;;5033563;28;20101;-78
2023/08/27 06:52:24;;;;;;;5.55;3.80;;;;;;;;;;5033532;28;20033;-78
2023/08/27 06:54:52;;;;;;;6.82;3.42;;;;;;;;;;5034585;28;20025;-78
2023/08/27 06:57:20;;;;;;;7.43;3.33;;;;;;;;;;5032873;28;20447;-78
2023/08/27 06:59:46;;;;;;;4.53;3.05;;;;;;;;;;5034274;28;20030;-78
2023/08/27 07:02:13;;;;;;;5.35;2.75;;;;;;;;;;5036470;28;20032;-78
2023/08/27 07:04:39;;;;;;;5.35;2.60;;;;;;;;;;5037674;28;20021;-78
2023/08/27 07:07:05;;;;;;;2.75;2.42;;;;;;;;;;5036750;28;20049;-79
2023/08/27 07:09:31;;;;;;;3.30;1.90;;;;;;;;;;5037216;28;20473;-79
2023/08/27 07:11:57;;;;;;;3.10;1.80;;;;;;;;;;5038308;28;20167;-78
2023/08/27 07:14:23;;;;;;;3.03;1.60;;;;;;;;;;5036367;28;20045;-78
2023/08/27 07:16:49;;;;;;;2.63;1.40;;;;;;;;;;5037865;28;20026;-78
2023/08/27 07:19:15;;;;;;;1.10;1.00;;;;;;;;;;5037641;28;20469;-79
2023/08/27 07:21:41;;;;;;;1.52;0.80;;;;;;;;;;5037099;28;20030;-78
2023/08/27 07:24:08;;;;;;;1.23;0.60;;;;;;;;;;5038944;28;20034;-79
2023/08/27 07:26:34;;;;;;;1.45;0.52;;;;;;;;;;5037990;28;20032;-79
2023/08/27 07:29:00;;;;;;;1.05;0.60;;;;;;;;;;5038582;28;20029;-79
2023/08/27 07:31:26;;;;;;;0.68;0.43;;;;;;;;;;5036308;28;20423;-78
2023/08/27 07:33:52;;;;;;;1.30;0.30;;;;;;;;;;5036155;28;20044;-78
2023/08/27 07:36:18;;;;;;;1.20;0.45;;;;;;;;;;5020199;28;20025;-78
2023/08/27 07:38:45;;;;;;;1.00;0.30;;;;;;;;;;5038564;28;20029;-78
2023/08/27 07:41:13;;;;;;;1.45;0.43;;;;;;;;;;5037667;28;20041;-79
2023/08/27 07:43:39;;;;;;;0.55;0.30;;;;;;;;;;5041278;28;20083;-79
2023/08/27 07:46:05;;;;;;;1.65;0.40;;;;;;;;;;5041720;28;20032;-79
2023/08/27 07:48:32;;;;;;;1.92;0.40;;;;;;;;;;5037007;28;20028;-77
2023/08/27 07:50:58;;;;;;;0.40;0.40;;;;;;;;;;5035477;28;20029;-77
2023/08/27 07:53:24;;;;;;;0.45;0.30;;;;;;;;;;5035029;28;20025;-77
2023/08/27 07:55:50;;;;;;;1.40;0.52;;;;;;;;;;5034929;28;20037;-77
2023/08/27 07:58:17;;;;;;;0.30;0.30;;;;;;;;;;5035147;28;20093;-77
2023/08/27 08:00:43;;;;;;;0.40;0.38;;;;;;;;;;5035034;28;20024;-77
2023/08/27 08:03:09;;;;;;;1.00;0.35;;;;;;;;;;5034957;28;20025;-77
2023/08/27 08:05:35;;;;;;;0.80;0.30;;;;;;;;;;5034918;28;20071;-77
2023/08/27 08:08:01;;;;;;;0.30;0.30;;;;;;;;;;5035157;28;20118;-77
2023/08/27 08:10:27;;;;;;;1.30;0.20;;;;;;;;;;5034826;28;20057;-77
2023/08/27 08:12:53;;;;;;;0.65;0.30;;;;;;;;;;5033827;28;20052;-77
2023/08/27 08:15:19;;;;;;;0.30;0.30;;;;;;;;;;5034875;28;20030;-77
2023/08/27 08:17:45;;;;;;;1.00;0.38;;;;;;;;;;5035326;28;20022;-77
2023/08/27 08:20:12;;;;;;;0.70;0.30;;;;;;;;;;5035315;28;20018;-77
2023/08/27 08:22:38;;;;;;;2.05;0.20;;;;;;;;;;5035179;28;20032;-78
2023/08/27 08:25:05;;;;;;;0.32;0.30;;;;;;;;;;5034951;28;20028;-77
2023/08/27 08:27:31;;;;;;;0.30;0.30;;;;;;;;;;5035027;28;20037;-78
2023/08/27 08:29:57;;;;;;;0.55;0.30;;;;;;;;;;5034753;28;20025;-78
2023/08/27 08:32:23;;;;;;;1.02;0.40;;;;;;;;;;5034323;28;20092;-77
2023/08/27 08:34:49;;;;;;;0.85;0.52;;;;;;;;;;5034637;28;20026;-77
2023/08/27 08:37:15;;;;;;;0.50;0.40;;;;;;;;;;5034383;28;20373;-78
2023/08/27 08:39:41;;;;;;;0.32;0.28;;;;;;;;;;5034387;28;20044;-77
2023/08/27 08:42:12;;;;;;;1.10;0.57;;;;;;;;;;5034486;28;20032;-77
2023/08/27 08:44:49;;;;;;;0.60;0.50;;;;;;;;;;5034482;28;20405;-78
2023/08/27 08:47:18;;;;;;;0.50;0.40;;;;;;;;;;5034269;28;20022;-77
2023/08/27 08:49:45;;;;;;;0.43;0.40;;;;;;;;;;5034498;28;20027;-77
2023/08/27 08:52:13;;;;;;;1.00;0.40;;;;;;;;;;5034342;28;20502;-77
2023/08/27 08:54:40;;;;;;;0.55;0.45;;;;;;;;;;5034027;28;20053;-77
2023/08/27 08:57:06;;;;;;;1.42;0.40;;;;;;;;;;5034102;28;20024;-77
2023/08/27 08:59:32;;;;;;;1.15;0.50;;;;;;;;;;5033959;28;20100;-78
2023/08/27 09:01:59;;;;;;;0.73;0.50;;;;;;;;;;5034383;28;20108;-78
2023/08/27 09:04:25;;;;;;;0.50;0.40;;;;;;;;;;5034225;28;20532;-77
2023/08/27 09:06:53;;;;;;;1.65;0.50;;;;;;;;;;5033903;28;20018;-77
2023/08/27 09:09:21;;;;;;;1.20;0.50;;;;;;;;;;5033807;28;20053;-78
2023/08/27 09:11:50;;;;;;;0.95;0.40;;;;;;;;;;5016658;28;20223;-78
2023/08/27 09:14:22;;;;;;;2.63;0.70;;;;;;;;;;5015876;28;20427;-78
2023/08/27 09:16:48;;;;;;;0.80;0.77;;;;;;;;;;5033536;28;20099;-77
2023/08/27 09:19:14;;;;;;;2.35;0.80;;;;;;;;;;5034104;28;20025;-77
2023/08/27 09:21:41;;;;;;;1.30;0.63;;;;;;;;;;5033706;28;20448;-77
2023/08/27 09:24:07;;;;;;;2.47;0.80;;;;;;;;;;5033644;28;20033;-77
2023/08/27 09:26:33;;;;;;;0.95;0.70;;;;;;;;;;5015967;28;20064;-77
2023/08/27 09:29:01;;;;;;;0.93;0.60;;;;;;;;;;5033618;28;20029;-77
2023/08/27 09:31:36;;;;;;;0.80;0.70;;;;;;;;;;5033624;28;20029;-77
2023/08/27 09:34:03;;;;;;;1.67;0.63;;;;;;;;;;5033585;28;20030;-77
2023/08/27 09:36:29;;;;;;;0.90;0.60;;;;;;;;;;5033749;28;20468;-77
2023/08/27 09:38:55;;;;;;;1.80;0.60;;;;;;;;;;5033557;28;20029;-77
2023/08/27 09:41:21;;;;;;;0.77;0.60;;;;;;;;;;5034079;28;20014;-78
2023/08/27 09:43:52;;;;;;;1.50;0.80;;;;;;;;;;5016065;28;20119;-77
2023/08/27 09:46:18;;;;;;;1.27;0.70;;;;;;;;;;5033463;28;20025;-77
2023/08/27 09:48:44;;;;;;;1.40;0.80;;;;;;;;;;5033716;28;20028;-77
2023/08/27 09:51:12;;;;;;;1.70;1.20;;;;;;;;;;5033775;28;20087;-77
2023/08/27 09:53:38;;;;;;;1.70;0.90;;;;;;;;;;5033803;28;20516;-78
2023/08/27 09:56:04;;;;;;;1.00;0.80;;;;;;;;;;5033659;28;20064;-78
2023/08/27 09:58:31;;;;;;;1.50;1.02;;;;;;;;;;5033859;28;20480;-78
2023/08/27 10:01:00;;;;;;;2.53;1.20;;;;;;;;;;5034057;28;20453;-77
2023/08/27 10:03:30;;;;;;;1.55;1.13;;;;;;;;;;5034113;28;20087;-78
2023/08/27 10:05:56;;;;;;;3.13;1.10;;;;;;;;;;5033418;28;20060;-78
2023/08/27 10:08:22;;;;;;;2.33;1.17;;;;;;;;;;5033285;28;20056;-78
2023/08/27 10:10:48;;;;;;;2.30;0.80;;;;;;;;;;5033631;28;20021;-78
2023/08/27 10:13:15;;;;;;;2.15;0.77;;;;;;;;;;5034112;28;20377;-78
2023/08/27 10:15:41;;;;;;;1.42;0.60;;;;;;;;;;5033887;28;20028;-78
2023/08/27 10:18:12;;;;;;;1.83;0.90;;;;;;;;;;5033867;28;20055;-78
2023/08/27 10:20:40;;;;;;;1.88;0.63;;;;;;;;;;5034084;28;20025;-78
2023/08/27 10:23:06;;;;;;;1.60;0.70;;;;;;;;;;5033397;28;20112;-78
2023/08/27 10:25:33;;;;;;;1.30;0.60;;;;;;;;;;5033330;28;20104;-78
2023/08/27 10:28:00;;;;;;;1.52;0.80;;;;;;;;;;5033793;28;20064;-78
2023/08/27 10:30:26;;;;;;;2.97;0.70;;;;;;;;;;5033623;28;20068;-78
2023/08/27 10:32:53;;;;;;;1.65;0.80;;;;;;;;;;5032917;28;20029;-78
2023/08/27 10:35:20;;;;;;;2.80;0.77;;;;;;;;;;5033815;28;20021;-78
2023/08/27 10:37:48;;;;;;;2.83;0.55;;;;;;;;;;5033815;28;20156;-78
2023/08/27 10:40:15;;;;;;;1.45;0.43;;;;;;;;;;5035109;28;20036;-78
2023/08/27 10:42:41;;;;;;;2.55;0.40;;;;;;;;;;5034648;28;20029;-78
2023/08/27 10:45:27;;;;;;;1.42;0.40;;;;;;;;;;5034815;28;20025;-78
2023/08/27 10:48:06;;;;;;;1.17;0.35;;;;;;;;;;5034026;28;20018;-78
2023/08/27 10:50:43;;;;;;;3.50;0.40;;;;;;;;;;5034379;28;20017;-79
2023/08/27 10:53:09;;;;;;;1.08;0.30;;;;;;;;;;5034666;28;20116;-78
2023/08/27 10:55:35;;;;;;;3.15;0.55;;;;;;;;;;5033673;28;20405;-78
2023/08/27 10:58:22;;;;;;;4.75;0.70;;;;;;;;;;5034074;28;20017;-78
2023/08/27 11:01:04;;;;;;;3.35;0.50;;;;;;;;;;5032581;28;20064;-78
2023/08/27 11:03:49;;;;;;;3.65;0.50;;;;;;;;;;5032797;28;20030;-78
2023/08/27 11:06:15;;;;;;;4.18;0.60;;;;;;;;;;5032269;28;20052;-77
2023/08/27 11:08:41;;;;;;;6.60;0.60;;;;;;;;;;5031867;28;20054;-77
2023/08/27 11:11:14;;;;;;;3.55;0.60;;;;;;;;;;5032090;28;20028;-77
2023/08/27 11:13:41;;;;;;;3.70;0.93;;;;;;;;;;5014126;28;20030;-77
2023/08/27 11:16:17;;;;;;;3.08;0.75;;;;;;;;;;5032550;28;20025;-77
2023/08/27 11:18:44;;;;;;;4.00;0.80;;;;;;;;;;5034686;28;20101;-77
2023/08/27 11:21:40;;;;;;;3.05;0.43;;;;;;;;;;5033564;28;20060;-77
2023/08/27 11:24:16;;;;;;;1.50;0.47;;;;;;;;;;5005539;28;20095;-77
2023/08/27 11:26:43;;;;;;;0.98;0.40;;;;;;;;;;5031850;28;20546;-77
2023/08/27 11:29:10;;;;;;;1.65;0.50;;;;;;;;;;5032162;28;20049;-77
2023/08/27 11:31:43;;;;;;;1.48;0.50;;;;;;;;;;5031793;28;20026;-77
2023/08/27 11:34:13;;;;;;;2.08;0.50;;;;;;;;;;5032016;28;20097;-77
2023/08/27 11:36:45;;;;;;;1.45;0.40;;;;;;;;;;5031963;28;20057;-78
2023/08/27 11:39:14;;;;;;;1.05;0.43;;;;;;;;;;5032061;28;20026;-79
2023/08/27 11:41:41;;;;;;;1.92;0.50;;;;;;;;;;5031953;28;20468;-79
2023/08/27 11:44:10;;;;;;;2.03;0.60;;;;;;;;;;5031902;28;20057;-79
2023/08/27 11:46:36;;;;;;;1.75;0.70;;;;;;;;;;5032305;28;20029;-79
2023/08/27 11:49:03;;;;;;;1.08;0.47;;;;;;;;;;5033935;28;20071;-79
2023/08/27 11:51:29;;;;;;;3.30;0.60;;;;;;;;;;5035469;28;20032;-79
2023/08/27 11:53:55;;;;;;;2.72;0.50;;;;;;;;;;5035255;28;20069;-79
2023/08/27 11:56:22;;;;;;;1.23;0.35;;;;;;;;;;5035747;28;20116;-79
2023/08/27 11:58:53;;;;;;;0.55;0.40;;;;;;;;;;5018367;28;20376;-79
2023/08/27 12:01:23;;;;;;;2.10;0.50;;;;;;;;;;5017532;28;20029;-79
2023/08/27 12:03:49;;;;;;;1.90;0.70;;;;;;;;;;5035211;28;20075;-80
2023/08/27 12:06:17;;;;;;;1.27;0.60;;;;;;;;;;5035094;28;20349;-80
2023/08/27 12:08:47;;;;;;;2.30;0.40;;;;;;;;;;5034709;28;20515;-77
2023/08/27 12:11:13;;;;;;;;;;;;;;;;;;5035205;28;20083;-78
2023/08/27 12:13:39;;;;;;;2.60;1.05;;;;;;;;;;5035219;28;19917;-79
2023/08/27 12:16:06;;;;;;;2.58;0.65;;;;;;;;;;5035203;28;20057;-79
2023/08/27 12:18:34;;;;;;;2.38;0.60;;;;;;;;;;5035243;28;20036;-79
2023/08/27 12:21:06;;;;;;;3.37;0.80;;;;;;;;;;5017123;28;20061;-79
2023/08/27 12:23:33;;;;;;;2.42;0.60;;;;;;;;;;5034789;28;20492;-78
2023/08/27 12:26:01;;;;;;;2.38;0.60;;;;;;;;;;5034734;28;20105;-78
2023/08/27 12:28:27;;;;;;;2.10;0.45;;;;;;;;;;5034788;28;20109;-79
2023/08/27 12:30:54;;;;;;;1.77;0.50;;;;;;;;;;5034776;28;20108;-79
2023/08/27 12:33:20;;;;;;;3.40;0.70;;;;;;;;;;5016685;28;20040;-79
2023/08/27 12:35:46;;;;;;;3.17;0.52;;;;;;;;;;5034455;28;20408;-79
2023/08/27 12:38:12;;;;;;;2.92;0.75;;;;;;;;;;5034632;28;20022;-79
2023/08/27 12:40:38;;;;;;;2.70;0.70;;;;;;;;;;5034719;28;20022;-79
2023/08/27 12:43:05;;;;;;;1.27;0.40;;;;;;;;;;5035265;28;20036;-79
2023/08/27 12:45:31;;;;;;;2.90;0.40;;;;;;;;;;5034614;28;20600;-79
2023/08/27 12:48:02;;;;;;;1.60;0.50;;;;;;;;;;5037483;28;20025;-79
2023/08/27 12:50:28;;;;;;;2.70;0.60;;;;;;;;;;5034740;28;20456;-79
2023/08/27 12:52:54;;;;;;;1.38;0.50;;;;;;;;;;5034313;28;20037;-79
2023/08/27 12:55:20;;;;;;;3.78;0.82;;;;;;;;;;5034332;28;20048;-79
2023/08/27 12:57:46;;;;;;;1.02;0.63;;;;;;;;;;5034461;28;20025;-79
2023/08/27 13:00:13;;;;;;;2.03;0.80;;;;;;;;;;5034180;28;20030;-79
2023/08/27 13:02:39;;;;;;;1.58;1.00;;;;;;;;;;5034580;28;20075;-79
2023/08/27 13:05:05;;;;;;;2.20;0.80;;;;;;;;;;5034864;28;20025;-79
2023/08/27 13:07:31;;;;;;;3.25;0.90;;;;;;;;;;5036183;28;20044;-80
2023/08/27 13:09:57;;;;;;;3.60;0.60;;;;;;;;;;5054528;28;20050;-79
2023/08/27 13:12:23;;;;;;;0.80;0.60;;;;;;;;;;5054499;28;20025;-79
2023/08/27 13:14:49;;;;;;;1.98;0.50;;;;;;;;;;5056934;28;20027;-79
2023/08/27 13:17:15;;;;;;;2.05;0.50;;;;;;;;;;5054133;28;20021;-79
2023/08/27 13:19:41;;;;;;;2.95;0.77;;;;;;;;;;5054142;28;20415;-79
2023/08/27 13:22:07;;;;;;;2.10;0.63;;;;;;;;;;5053963;28;20025;-79
2023/08/27 13:24:33;;;;;;;5.05;0.63;;;;;;;;;;5054057;28;20036;-80
2023/08/27 13:26:59;;;;;;;0.90;0.57;;;;;;;;;;5035941;28;20033;-79
2023/08/27 13:29:26;;;;;;;1.38;0.63;;;;;;;;;;5053647;28;20028;-79
2023/08/27 13:31:56;;;;;;;2.05;0.50;;;;;;;;;;5053700;28;20531;-79
2023/08/27 13:34:23;;;;;;;1.58;0.65;;;;;;;;;;5053702;28;20364;-79
2023/08/27 13:36:49;;;;;;;2.92;0.60;;;;;;;;;;5058478;28;20028;-80
2023/08/27 13:39:15;;;;;;;2.08;0.60;;;;;;;;;;5055468;28;20033;-80
2023/08/27 13:41:41;;;;;;;3.33;0.70;;;;;;;;;;5053733;28;20486;-78
2023/08/27 13:44:07;;;;;;;4.65;0.70;;;;;;;;;;5053029;28;20031;-78
2023/08/27 13:46:33;;;;;;;2.85;1.02;;;;;;;;;;5053350;28;20467;-78
2023/08/27 13:49:00;;;;;;;2.83;0.90;;;;;;;;;;5054810;28;20039;-78
2023/08/27 13:51:26;;;;;;;4.28;1.00;;;;;;;;;;5053197;28;20024;-78
2023/08/27 13:53:52;;;;;;;8.02;1.45;;;;;;;;;;5052850;28;20037;-78
2023/08/27 13:56:19;;;;;;;6.32;1.20;;;;;;;;;;5052979;28;20032;-78
2023/08/27 13:58:45;;;;;;;5.95;1.00;;;;;;;;;;5053150;28;20016;-78
2023/08/27 14:01:11;;;;;;;6.28;0.90;;;;;;;;;;5052793;28;20029;-78
2023/08/27 14:03:37;;;;;;;3.88;0.85;;;;;;;;;;5052819;28;20036;-77
2023/08/27 14:06:04;;;;;;;3.20;0.90;;;;;;;;;;5052715;28;20029;-78
2023/08/27 14:08:30;;;;;;;3.95;0.85;;;;;;;;;;5052504;28;20048;-78
2023/08/27 14:10:56;;;;;;;4.35;0.90;;;;;;;;;;5051813;28;20029;-78
2023/08/27 14:13:23;;;;;;;2.38;0.73;;;;;;;;;;5052625;28;20492;-78
2023/08/27 14:15:49;;;;;;;2.47;0.73;;;;;;;;;;5052626;28;20032;-78
2023/08/27 14:18:16;;;;;;;0.68;0.63;;;;;;;;;;5052529;28;20025;-78
2023/08/27 14:20:42;;;;;;;1.13;0.50;;;;;;;;;;5052563;28;20119;-78
2023/08/27 14:23:08;;;;;;;3.75;0.77;;;;;;;;;;5052589;28;20090;-78
2023/08/27 14:25:34;;;;;;;2.00;0.65;;;;;;;;;;5052806;28;20415;-78
2023/08/27 14:28:00;;;;;;;1.27;0.68;;;;;;;;;;5052676;28;20036;-78
2023/08/27 14:30:26;;;;;;;3.85;0.90;;;;;;;;;;5052513;28;20032;-78
2023/08/27 14:32:52;;;;;;;3.08;0.80;;;;;;;;;;5052289;28;20056;-78
2023/08/27 14:35:18;;;;;;;1.05;0.90;;;;;;;;;;5052287;28;20099;-78
2023/08/27 14:37:45;;;;;;;1.58;1.40;;;;;;;;;;5052665;28;20033;-78